Sheila Moran — WYN6274 — position and weather

sailwx.info

Track history (hours):
 
Tides and Currents Weather Stations Pressure Air Temp Water Temp Dewpoint Dewpoint Depression Visibility Wind Speed Wind Dir Waves Ship Positions

Sheila Moran

Owner: MORAN TOWING CORPORATION, New Canaan, CT. More information available from US FCC via Universal Licensing System and Coast Guard Vessel Documentation Center.

Last reported at 2017-Dec-15 12:00 UTC. Time now 2017-Dec-15 12:12 UTC.
Position N 32°09' W 081°09'.

Length 165 m; draft 6.4 m.

Type: Tug. MMSI: 366939810.

Date/timePositionNaut miles runAvg speedWind from/ knotsBaromVisibWave heightAir tempDewpointWater temp
2017-Dec-15 12:00N 32°09' W 081°09'0 0.0
2017-Dec-15 11:30N 32°09' W 081°09'0 0.0
2017-Dec-15 11:00N 32°09' W 081°09'0 0.0
2017-Dec-15 10:24N 32°09' W 081°09'0 0.0
2017-Dec-15 10:00N 32°09' W 081°09'0 0.0
2017-Dec-15 09:30N 32°09' W 081°09'0 0.0
2017-Dec-15 09:00N 32°09' W 081°09'0 0.0
2017-Dec-15 08:18N 32°09' W 081°09'0 0.0
2017-Dec-15 08:00N 32°09' W 081°09'0 0.0
2017-Dec-15 07:30N 32°09' W 081°09'0 0.0
2017-Dec-15 06:48N 32°09' W 081°09'0 0.0
2017-Dec-15 06:30N 32°09' W 081°09'0 0.0
2017-Dec-15 06:00N 32°09' W 081°09'0 0.0
2017-Dec-15 05:30N 32°09' W 081°09'0 0.0
2017-Dec-15 05:00N 32°09' W 081°09'0 0.0
2017-Dec-15 04:30N 32°09' W 081°09'0 0.0
2017-Dec-15 04:00N 32°09' W 081°09'0 0.0
2017-Dec-15 02:30N 32°09' W 081°09'0 0.0
2017-Dec-15 01:00N 32°09' W 081°09'0 0.0
2017-Dec-15 00:30N 32°09' W 081°09'21 3.5
2017-Dec-14 18:30N 31°59' W 080°46'3 5.6
2017-Dec-14 18:00N 31°58' W 080°43'4 7.4
2017-Dec-14 17:30N 31°54' W 080°43'4 7.0
2017-Dec-14 17:00N 31°51' W 080°44'3 6.6
2017-Dec-14 16:30N 31°48' W 080°46'3 6.8
2017-Dec-14 16:00N 31°46' W 080°49'280 6.2
2017-Dec-12 19:06N 27°08' W 080°06'1 8.0
2017-Dec-12 19:00N 27°07' W 080°05'4 7.8
2017-Dec-12 18:30N 27°03' W 080°04'4 7.8
2017-Dec-12 18:00N 26°60' W 080°03'4 7.7
2017-Dec-12 17:30N 26°56' W 080°01'4 8.0
2017-Dec-12 17:00N 26°52' W 079°60'4 8.0
2017-Dec-12 16:30N 26°49' W 079°58'2 3.1
2017-Dec-12 16:00N 26°47' W 079°58'3 6.5
2017-Dec-12 15:30N 26°46' W 080°01'2 3.3
2017-Dec-12 15:00N 26°46' W 080°03'0 0.0
2017-Dec-12 13:37N 26°46' W 080°03'0 0.0
2017-Dec-12 13:28N 26°46' W 080°03'0 0.1
2017-Dec-12 12:58N 26°46' W 080°03'0 0.0
2017-Dec-12 12:28N 26°46' W 080°03'0 0.0
2017-Dec-12 11:58N 26°46' W 080°03'0 0.0
2017-Dec-12 11:28N 26°46' W 080°03'0 0.0
2017-Dec-12 10:58N 26°46' W 080°03'0 0.0
2017-Dec-12 10:28N 26°46' W 080°03'0 0.0
2017-Dec-12 09:58N 26°46' W 080°03'0 0.0
2017-Dec-12 09:28N 26°46' W 080°03'0 0.0
2017-Dec-12 08:58N 26°46' W 080°03'0 0.0
2017-Dec-12 08:28N 26°46' W 080°03'0 0.0
2017-Dec-12 07:58N 26°46' W 080°03'0 0.0
2017-Dec-12 07:28N 26°46' W 080°03'0 0.0
2017-Dec-12 06:58N 26°46' W 080°03'0 0.0
2017-Dec-12 06:28N 26°46' W 080°03'0 0.0
2017-Dec-12 05:58N 26°46' W 080°03'0 0.0
2017-Dec-12 05:28N 26°46' W 080°03'0 0.0
2017-Dec-12 04:58N 26°46' W 080°03'0 0.0
2017-Dec-12 04:28N 26°46' W 080°03'0 0.0
2017-Dec-12 03:58N 26°46' W 080°03'0 0.0
2017-Dec-12 03:28N 26°46' W 080°03'0 0.0
2017-Dec-12 02:58N 26°46' W 080°03'0 0.0
2017-Dec-12 02:28N 26°46' W 080°03'0 0.0
2017-Dec-12 01:58N 26°46' W 080°03'0 0.0
2017-Dec-12 01:28N 26°46' W 080°03'0 0.0
2017-Dec-12 00:58N 26°46' W 080°03'0 0.0
2017-Dec-12 00:28N 26°46' W 080°03'0 0.0
2017-Dec-11 23:58N 26°46' W 080°03'0 0.0
2017-Dec-11 23:28N 26°46' W 080°03'0 0.0
2017-Dec-11 22:58N 26°46' W 080°03'0 0.0
2017-Dec-11 14:43N 26°46' W 080°03'0 0.0
2017-Dec-11 14:28N 26°46' W 080°03'0 0.3
2017-Dec-11 14:00N 26°46' W 080°03'2 3.3
2017-Dec-11 13:30N 26°46' W 080°01'1 2.7
2017-Dec-11 13:00N 26°45' W 080°01'1 1.4
2017-Dec-11 12:30N 26°44' W 080°01'2 4.5
2017-Dec-11 12:00N 26°42' W 080°01'2 4.9
2017-Dec-11 11:31N 26°39' W 080°01'2 3.9
2017-Dec-11 11:00N 26°37' W 080°01'2 3.5
2017-Dec-11 10:31N 26°36' W 080°01'2 3.7
2017-Dec-11 10:01N 26°34' W 080°01'2 3.6
2017-Dec-11 09:30N 26°32' W 080°01'2 3.7
2017-Dec-11 09:00N 26°30' W 080°01'2 4.9
2017-Dec-11 08:30N 26°33' W 080°00'4 8.0
2017-Dec-11 08:00N 26°37' W 080°01'4 8.5
2017-Dec-11 07:30N 26°41' W 080°00'4 8.1
2017-Dec-11 07:00N 26°45' W 079°60'1 2.2
2017-Dec-11 06:30N 26°44' W 080°01'2 3.9
2017-Dec-11 06:00N 26°42' W 080°01'2 3.5
2017-Dec-11 05:30N 26°40' W 080°00'2 3.3
2017-Dec-11 05:00N 26°39' W 080°00'2 3.4
2017-Dec-11 04:31N 26°37' W 080°01'2 3.7
2017-Dec-11 04:00N 26°35' W 080°01'2 3.6
2017-Dec-11 03:31N 26°33' W 080°01'2 3.8
2017-Dec-11 03:00N 26°32' W 080°01'2 3.9
2017-Dec-11 02:30N 26°30' W 080°02'2 4.4
2017-Dec-11 02:00N 26°27' W 080°02'2 4.6
2017-Dec-11 01:31N 26°25' W 080°02'3 5.6
2017-Dec-11 01:01N 26°22' W 080°03'3 5.1
2017-Dec-11 00:30N 26°20' W 080°02'4 7.9
2017-Dec-11 00:01N 26°24' W 080°02'4 8.8
2017-Dec-10 23:30N 26°28' W 080°01'7 9.5
2017-Dec-10 22:46N 26°35' W 080°01'2 9.4
2017-Dec-10 22:31N 26°38' W 080°01'5 9.0
2017-Dec-10 22:00N 26°42' W 080°01'1 2.0
2017-Dec-10 21:30N 26°43' W 080°01'3 5.7
2017-Dec-10 21:01N 26°40' W 079°60'3 5.6
2017-Dec-10 20:31N 26°38' W 079°58'3 5.2
2017-Dec-10 20:00N 26°35' W 079°59'3 5.2
2017-Dec-10 19:30N 26°33' W 080°00'3 5.1
2017-Dec-10 19:00N 26°30' W 080°01'3 5.2
2017-Dec-10 18:30N 26°28' W 080°00'2 5.0
2017-Dec-10 18:00N 26°30' W 079°59'5 9.9
2017-Dec-10 17:30N 26°35' W 079°59'5 9.3
2017-Dec-10 17:00N 26°40' W 079°58'4 9.0
2017-Dec-10 16:31N 26°44' W 079°58'4 8.7
2017-Dec-10 16:00N 26°48' W 079°59'5 9.2
2017-Dec-10 15:31N 26°53' W 080°00'5 9.2
2017-Dec-10 15:00N 26°57' W 080°02'5 9.2
2017-Dec-10 14:30N 27°02' W 080°03'  
2017-Dec-08 03:36N 34°20' W 076°41'110.5
2017-Dec-08 03:29N 34°21' W 076°40'  
Track history (hours):
 
Tides and Currents Weather Stations Pressure Air Temp Water Temp Dewpoint Dewpoint Depression Visibility Wind Speed Wind Dir Waves Ship Positions

Sheila Moran

Owner: MORAN TOWING CORPORATION, New Canaan, CT. More information available from US FCC via Universal Licensing System and Coast Guard Vessel Documentation Center.

Last reported at 2017-Dec-15 12:00 UTC. Time now 2017-Dec-15 12:12 UTC.
Position N 32°09' W 081°09'.

Length 165 m; draft 6.4 m.

Type: Tug. MMSI: 366939810.

Date/timePositionNaut miles runAvg speedWind from/ knotsBaromVisibWave heightAir tempDewpointWater temp
2017-Dec-15 12:00N 32°09' W 081°09'0 0.0
2017-Dec-15 11:30N 32°09' W 081°09'0 0.0
2017-Dec-15 11:00N 32°09' W 081°09'0 0.0
2017-Dec-15 10:24N 32°09' W 081°09'0 0.0
2017-Dec-15 10:00N 32°09' W 081°09'0 0.0
2017-Dec-15 09:30N 32°09' W 081°09'0 0.0
2017-Dec-15 09:00N 32°09' W 081°09'0 0.0
2017-Dec-15 08:18N 32°09' W 081°09'0 0.0
2017-Dec-15 08:00N 32°09' W 081°09'0 0.0
2017-Dec-15 07:30N 32°09' W 081°09'0 0.0
2017-Dec-15 06:48N 32°09' W 081°09'0 0.0
2017-Dec-15 06:30N 32°09' W 081°09'0 0.0
2017-Dec-15 06:00N 32°09' W 081°09'0 0.0
2017-Dec-15 05:30N 32°09' W 081°09'0 0.0
2017-Dec-15 05:00N 32°09' W 081°09'0 0.0
2017-Dec-15 04:30N 32°09' W 081°09'0 0.0
2017-Dec-15 04:00N 32°09' W 081°09'0 0.0
2017-Dec-15 02:30N 32°09' W 081°09'0 0.0
2017-Dec-15 01:00N 32°09' W 081°09'0 0.0
2017-Dec-15 00:30N 32°09' W 081°09'21 3.5
2017-Dec-14 18:30N 31°59' W 080°46'3 5.6
2017-Dec-14 18:00N 31°58' W 080°43'4 7.4
2017-Dec-14 17:30N 31°54' W 080°43'4 7.0
2017-Dec-14 17:00N 31°51' W 080°44'3 6.6
2017-Dec-14 16:30N 31°48' W 080°46'3 6.8
2017-Dec-14 16:00N 31°46' W 080°49'280 6.2
2017-Dec-12 19:06N 27°08' W 080°06'1 8.0
2017-Dec-12 19:00N 27°07' W 080°05'4 7.8
2017-Dec-12 18:30N 27°03' W 080°04'4 7.8
2017-Dec-12 18:00N 26°60' W 080°03'4 7.7
2017-Dec-12 17:30N 26°56' W 080°01'4 8.0
2017-Dec-12 17:00N 26°52' W 079°60'4 8.0
2017-Dec-12 16:30N 26°49' W 079°58'2 3.1
2017-Dec-12 16:00N 26°47' W 079°58'3 6.5
2017-Dec-12 15:30N 26°46' W 080°01'2 3.3
2017-Dec-12 15:00N 26°46' W 080°03'0 0.0
2017-Dec-12 13:37N 26°46' W 080°03'0 0.0
2017-Dec-12 13:28N 26°46' W 080°03'0 0.1
2017-Dec-12 12:58N 26°46' W 080°03'0 0.0
2017-Dec-12 12:28N 26°46' W 080°03'0 0.0
2017-Dec-12 11:58N 26°46' W 080°03'0 0.0
2017-Dec-12 11:28N 26°46' W 080°03'0 0.0
2017-Dec-12 10:58N 26°46' W 080°03'0 0.0
2017-Dec-12 10:28N 26°46' W 080°03'0 0.0
2017-Dec-12 09:58N 26°46' W 080°03'0 0.0
2017-Dec-12 09:28N 26°46' W 080°03'0 0.0
2017-Dec-12 08:58N 26°46' W 080°03'0 0.0
2017-Dec-12 08:28N 26°46' W 080°03'0 0.0
2017-Dec-12 07:58N 26°46' W 080°03'0 0.0
2017-Dec-12 07:28N 26°46' W 080°03'0 0.0
2017-Dec-12 06:58N 26°46' W 080°03'0 0.0
2017-Dec-12 06:28N 26°46' W 080°03'0 0.0
2017-Dec-12 05:58N 26°46' W 080°03'0 0.0
2017-Dec-12 05:28N 26°46' W 080°03'0 0.0
2017-Dec-12 04:58N 26°46' W 080°03'0 0.0
2017-Dec-12 04:28N 26°46' W 080°03'0 0.0
2017-Dec-12 03:58N 26°46' W 080°03'0 0.0
2017-Dec-12 03:28N 26°46' W 080°03'0 0.0
2017-Dec-12 02:58N 26°46' W 080°03'0 0.0
2017-Dec-12 02:28N 26°46' W 080°03'0 0.0
2017-Dec-12 01:58N 26°46' W 080°03'0 0.0
2017-Dec-12 01:28N 26°46' W 080°03'0 0.0
2017-Dec-12 00:58N 26°46' W 080°03'0 0.0
2017-Dec-12 00:28N 26°46' W 080°03'0 0.0
2017-Dec-11 23:58N 26°46' W 080°03'0 0.0
2017-Dec-11 23:28N 26°46' W 080°03'0 0.0
2017-Dec-11 22:58N 26°46' W 080°03'0 0.0
2017-Dec-11 14:43N 26°46' W 080°03'0 0.0
2017-Dec-11 14:28N 26°46' W 080°03'0 0.3
2017-Dec-11 14:00N 26°46' W 080°03'2 3.3
2017-Dec-11 13:30N 26°46' W 080°01'1 2.7
2017-Dec-11 13:00N 26°45' W 080°01'1 1.4
2017-Dec-11 12:30N 26°44' W 080°01'2 4.5
2017-Dec-11 12:00N 26°42' W 080°01'2 4.9
2017-Dec-11 11:31N 26°39' W 080°01'2 3.9
2017-Dec-11 11:00N 26°37' W 080°01'2 3.5
2017-Dec-11 10:31N 26°36' W 080°01'2 3.7
2017-Dec-11 10:01N 26°34' W 080°01'2 3.6
2017-Dec-11 09:30N 26°32' W 080°01'2 3.7
2017-Dec-11 09:00N 26°30' W 080°01'2 4.9
2017-Dec-11 08:30N 26°33' W 080°00'4 8.0
2017-Dec-11 08:00N 26°37' W 080°01'4 8.5
2017-Dec-11 07:30N 26°41' W 080°00'4 8.1
2017-Dec-11 07:00N 26°45' W 079°60'1 2.2
2017-Dec-11 06:30N 26°44' W 080°01'2 3.9
2017-Dec-11 06:00N 26°42' W 080°01'2 3.5
2017-Dec-11 05:30N 26°40' W 080°00'2 3.3
2017-Dec-11 05:00N 26°39' W 080°00'2 3.4
2017-Dec-11 04:31N 26°37' W 080°01'2 3.7
2017-Dec-11 04:00N 26°35' W 080°01'2 3.6
2017-Dec-11 03:31N 26°33' W 080°01'2 3.8
2017-Dec-11 03:00N 26°32' W 080°01'2 3.9
2017-Dec-11 02:30N 26°30' W 080°02'2 4.4
2017-Dec-11 02:00N 26°27' W 080°02'2 4.6
2017-Dec-11 01:31N 26°25' W 080°02'3 5.6
2017-Dec-11 01:01N 26°22' W 080°03'3 5.1
2017-Dec-11 00:30N 26°20' W 080°02'4 7.9
2017-Dec-11 00:01N 26°24' W 080°02'4 8.8
2017-Dec-10 23:30N 26°28' W 080°01'7 9.5
2017-Dec-10 22:46N 26°35' W 080°01'2 9.4
2017-Dec-10 22:31N 26°38' W 080°01'5 9.0
2017-Dec-10 22:00N 26°42' W 080°01'1 2.0
2017-Dec-10 21:30N 26°43' W 080°01'3 5.7
2017-Dec-10 21:01N 26°40' W 079°60'3 5.6
2017-Dec-10 20:31N 26°38' W 079°58'3 5.2
2017-Dec-10 20:00N 26°35' W 079°59'3 5.2
2017-Dec-10 19:30N 26°33' W 080°00'3 5.1
2017-Dec-10 19:00N 26°30' W 080°01'3 5.2
2017-Dec-10 18:30N 26°28' W 080°00'2 5.0
2017-Dec-10 18:00N 26°30' W 079°59'5 9.9
2017-Dec-10 17:30N 26°35' W 079°59'5 9.3
2017-Dec-10 17:00N 26°40' W 079°58'4 9.0
2017-Dec-10 16:31N 26°44' W 079°58'4 8.7
2017-Dec-10 16:00N 26°48' W 079°59'5 9.2
2017-Dec-10 15:31N 26°53' W 080°00'5 9.2
2017-Dec-10 15:00N 26°57' W 080°02'5 9.2
2017-Dec-10 14:30N 27°02' W 080°03'  
2017-Dec-08 03:36N 34°20' W 076°41'110.5
2017-Dec-08 03:29N 34°21' W 076°40'  

Dump ship's entire track history